Time;durP1;ratioP1;P1;durP2;ratioP2;P2;SDS_P1;SDS_P2;PMS_P1;PMS_P2;Temp;Humidity;BMP_temperature;BMP_pressure;BME280_temperature;BME280_humidity;BME280_pressure;Samples;Min_cycle;Max_cycle;Signal;HPM_P1;HPM_P2
2022/10/21 00:00:23;;;;;;;;;1.33;1.33;;;;;16.90;100.00;100285.84;4943921;28;46079;-77
2022/10/21 00:02:48;;;;;;;;;1.00;1.00;;;;;16.86;100.00;100279.31;4949840;28;45265;-77
2022/10/21 00:05:14;;;;;;;;;1.00;1.00;;;;;16.93;100.00;100295.28;4940625;28;45317;-78
2022/10/21 00:07:39;;;;;;;;;3.00;1.67;;;;;16.84;100.00;100276.00;4940467;28;45258;-78
2022/10/21 00:10:05;;;;;;;;;3.00;3.00;;;;;16.84;100.00;100273.34;4954670;28;47251;-78
2022/10/21 00:12:32;;;;;;;;;2.67;2.00;;;;;16.91;100.00;100284.78;4957358;28;45384;-78
2022/10/21 00:14:57;;;;;;;;;2.00;2.00;;;;;16.90;100.00;100272.44;4943973;28;45242;-78
2022/10/21 00:17:23;;;;;;;;;1.67;1.67;;;;;16.85;100.00;100256.19;4943800;28;45327;-77
2022/10/21 00:19:48;;;;;;;;;3.67;2.00;;;;;16.79;100.00;100252.53;4965219;28;48227;-77
2022/10/21 00:22:14;;;;;;;;;1.00;0.67;;;;;16.77;100.00;100241.22;4950727;28;45240;-77
2022/10/21 00:24:39;;;;;;;;;2.00;2.00;;;;;16.84;100.00;100251.88;4943894;28;45152;-76
2022/10/21 00:27:04;;;;;;;;;2.00;2.00;;;;;16.89;100.00;100248.50;4943771;28;45328;-78
2022/10/21 00:29:30;;;;;;;;;1.00;1.00;;;;;16.92;100.00;100256.09;4946340;28;45356;-76
2022/10/21 00:31:55;;;;;;;;;2.00;2.00;;;;;16.85;100.00;100234.69;4961758;28;45343;-77
2022/10/21 00:34:21;;;;;;;;;3.00;2.00;;;;;16.86;100.00;100238.22;4949013;28;45290;-77
2022/10/21 00:36:46;;;;;;;;;3.00;3.00;;;;;16.88;100.00;100236.13;4943627;28;45361;-76
2022/10/21 00:39:12;;;;;;;;;4.00;3.00;;;;;16.77;100.00;100210.91;4943549;28;45724;-75
2022/10/21 00:41:37;;;;;;;;;5.67;3.33;;;;;16.83;100.00;100222.56;4943452;28;45578;-77
2022/10/21 00:44:06;;;;;;;;;3.67;2.67;;;;;16.91;100.00;100239.16;4943768;28;45293;-77
2022/10/21 00:46:37;;;;;;;;;5.00;3.67;;;;;16.90;100.00;100237.53;4955668;28;46505;-76
2022/10/21 00:49:23;;;;;;;;;3.33;2.33;;;;;16.86;100.00;100227.47;4943323;28;46189;-78
2022/10/21 00:51:54;;;;;;;;;4.00;4.00;;;;;16.83;100.00;100217.19;4943318;28;45365;-77
2022/10/21 00:54:22;;;;;;;;;3.00;3.00;;;;;16.77;100.00;100214.38;4943548;28;45345;-77
2022/10/21 00:56:49;;;;;;;;;2.33;2.00;;;;;16.75;100.00;100203.06;4942966;28;45397;-77
2022/10/21 00:59:15;;;;;;;;;3.67;3.00;;;;;16.86;100.00;100224.78;4943333;28;45359;-77
2022/10/21 01:01:40;;;;;;;;;3.00;3.00;;;;;16.88;100.00;100234.25;4954590;28;45371;-77
2022/10/21 01:04:05;;;;;;;;;3.00;1.67;;;;;16.91;100.00;100219.53;4943277;28;45441;-77
2022/10/21 01:06:31;;;;;;;;;3.00;3.00;;;;;16.90;100.00;100216.06;4970736;28;45785;-77
2022/10/21 01:08:58;;;;;;;;;4.00;3.00;;;;;16.92;100.00;100207.78;4943287;28;45356;-76
2022/10/21 01:11:25;;;;;;;;;3.67;3.67;;;;;16.92;100.00;100195.16;4949900;28;45405;-77
2022/10/21 01:14:12;;;;;;;;;5.00;4.00;;;;;16.97;100.00;100201.72;4949405;28;45462;-78
2022/10/21 01:17:10;;;;;;;;;5.67;5.67;;;;;16.98;100.00;100184.56;4943170;28;45368;-77
2022/10/21 01:19:51;;;;;;;;;3.67;3.33;;;;;16.97;100.00;100166.84;4934212;28;45536;-77
2022/10/21 01:22:40;;;;;;;;;4.67;3.00;;;;;16.99;100.00;100168.22;4947387;28;45289;-76
2022/10/21 01:25:08;;;;;;;;;5.33;4.33;;;;;17.02;100.00;100166.94;4943053;28;45417;-77
2022/10/21 01:28:00;;;;;;;;;2.67;2.67;;;;;17.03;100.00;100152.50;4955200;28;46191;-77
2022/10/21 01:30:38;;;;;;;;;2.67;2.67;;;;;16.97;100.00;100138.13;4942987;28;46245;-76
2022/10/21 01:33:30;;;;;;;;;6.00;6.00;;;;;17.00;100.00;100145.69;4958411;28;45189;-77
2022/10/21 01:36:09;;;;;;;;;4.00;3.00;;;;;16.99;100.00;100130.66;4949096;28;45428;-75
2022/10/21 01:39:01;;;;;;;;;5.00;5.00;;;;;16.94;100.00;100133.19;4942628;28;45220;-77
2022/10/21 01:41:34;;;;;;;;;4.00;4.00;;;;;16.84;100.00;100106.13;4954892;28;47207;-76
2022/10/21 01:44:02;;;;;;;;;3.67;3.67;;;;;17.07;100.00;100159.06;4942607;28;45389;-76
2022/10/21 01:46:50;;;;;;;;;3.67;3.67;;;;;17.12;100.00;100156.47;4942787;28;45180;-77
2022/10/21 01:49:39;;;;;;;;;5.00;5.00;;;;;17.10;100.00;100133.59;4968120;28;47337;-76
2022/10/21 01:52:07;;;;;;;;;6.67;4.00;;;;;17.15;100.00;100129.16;4955573;28;45423;-76
2022/10/21 01:54:43;;;;;;;;;5.67;4.00;;;;;17.21;100.00;100134.66;4942947;28;45318;-77
2022/10/21 01:57:14;;;;;;;;;5.00;4.00;;;;;17.23;100.00;100136.06;4943540;28;45226;-76
2022/10/21 01:59:42;;;;;;;;;4.00;4.00;;;;;17.22;100.00;100147.03;4956345;28;46209;-76
2022/10/21 02:02:09;;;;;;;;;4.00;3.33;;;;;17.26;100.00;100148.19;4954582;28;45408;-78
2022/10/21 02:04:37;;;;;;;;;4.33;4.33;;;;;17.23;100.00;100119.94;4942344;28;45359;-79
2022/10/21 02:07:02;;;;;;;;;6.00;6.00;;;;;17.24;100.00;100132.31;4942797;28;45465;-78
2022/10/21 02:09:27;;;;;;;;;5.00;5.00;;;;;17.33;100.00;100167.69;4954090;28;46011;-77
2022/10/21 02:11:58;;;;;;;;;5.00;5.00;;;;;17.30;100.00;100208.44;4962229;28;45381;-78
2022/10/21 02:14:35;;;;;;;;;6.67;5.00;;;;;17.36;100.00;100247.81;4944819;28;46481;-78
2022/10/21 02:17:01;;;;;;;;;6.67;6.00;;;;;17.34;100.00;100263.34;4943574;28;45294;-79
2022/10/21 02:19:27;;;;;;;;;4.33;3.00;;;;;17.26;100.00;100288.66;4942696;28;45361;-78
2022/10/21 02:21:58;;;;;;;;;4.33;4.33;;;;;17.08;100.00;100264.56;4942461;28;46149;-77
2022/10/21 02:24:29;;;;;;;;;7.33;4.00;;;;;16.96;100.00;100275.22;4942743;28;45250;-76
2022/10/21 02:26:55;;;;;;;;;1.67;1.33;;;;;16.75;100.00;100272.00;4942697;28;45309;-77
2022/10/21 02:29:25;;;;;;;;;2.00;2.00;;;;;16.69;100.00;100264.84;4942616;28;45469;-78
2022/10/21 02:32:25;;;;;;;;;0.00;0.00;;;;;16.64;100.00;100263.69;4941567;28;45305;-78
2022/10/21 02:35:20;;;;;;;;;0.00;0.00;;;;;16.61;100.00;100257.97;4941102;28;45291;-76
2022/10/21 02:37:45;;;;;;;;;2.00;2.00;;;;;16.58;100.00;100245.00;4959333;28;45503;-77
2022/10/21 02:40:32;;;;;;;;;1.00;1.00;;;;;16.53;100.00;100249.16;4966898;28;46446;-76
2022/10/21 02:43:04;;;;;;;;;1.33;1.33;;;;;16.50;100.00;100255.00;4945936;28;45480;-77
2022/10/21 02:45:32;;;;;;;;;1.00;1.00;;;;;16.52;100.00;100252.91;4955703;28;45499;-77
2022/10/21 02:47:57;;;;;;;;;2.00;1.00;;;;;16.58;100.00;100264.59;4941940;28;45290;-77
2022/10/21 02:50:22;;;;;;;;;2.00;1.67;;;;;16.59;100.00;100250.16;4942098;28;45441;-75
2022/10/21 02:52:48;;;;;;;;;4.00;1.00;;;;;16.66;100.00;100258.91;4959500;28;48427;-76
2022/10/21 02:55:13;;;;;;;;;3.33;2.00;;;;;16.66;100.00;100263.47;4950105;28;45391;-77
2022/10/21 02:57:38;;;;;;;;;2.00;2.00;;;;;16.69;100.00;100241.53;4957407;28;45224;-78
2022/10/21 03:00:05;;;;;;;;;2.00;2.00;;;;;16.77;100.00;100230.47;4952319;28;45497;-78
2022/10/21 03:02:31;;;;;;;;;3.67;3.00;;;;;16.86;100.00;100220.25;4945670;28;46231;-78
2022/10/21 03:04:56;;;;;;;;;1.33;0.00;;;;;16.85;100.00;100204.38;4941196;28;45467;-78
2022/10/21 03:07:21;;;;;;;;;2.00;2.00;;;;;16.81;100.00;100203.19;4941829;28;45895;-77
2022/10/21 03:09:47;;;;;;;;;1.33;1.33;;;;;16.81;100.00;100153.03;4946231;28;45547;-79
2022/10/21 03:12:12;;;;;;;;;1.33;1.33;;;;;16.81;100.00;100128.88;4950620;28;45357;-77
2022/10/21 03:14:37;;;;;;;;;2.33;0.33;;;;;16.76;100.00;100128.78;4953790;28;45357;-78
2022/10/21 03:17:03;;;;;;;;;1.67;1.67;;;;;16.76;100.00;100164.44;4941606;28;45514;-78
2022/10/21 03:19:28;;;;;;;;;0.00;0.00;;;;;16.81;100.00;100203.19;4940817;28;53843;-77
2022/10/21 03:21:53;;;;;;;;;0.33;0.33;;;;;16.74;100.00;100196.06;4941437;28;47567;-78
2022/10/21 03:24:19;;;;;;;;;3.00;1.67;;;;;16.82;100.00;100186.84;4941249;28;45330;-78
2022/10/21 03:26:44;;;;;;;;;1.00;1.00;;;;;16.82;100.00;100180.69;4941359;28;45290;-78
2022/10/21 03:29:09;;;;;;;;;0.33;0.00;;;;;16.83;100.00;100171.59;4950048;28;47195;-78
2022/10/21 03:31:35;;;;;;;;;2.00;1.00;;;;;16.72;100.00;100152.53;4944622;28;45537;-78
2022/10/21 03:34:00;;;;;;;;;0.67;0.67;;;;;16.78;100.00;100146.25;4940919;28;48298;-78
2022/10/21 03:36:25;;;;;;;;;1.00;1.00;;;;;16.75;100.00;100130.63;4969706;28;45675;-77
2022/10/21 03:38:51;;;;;;;;;2.00;2.00;;;;;16.68;100.00;100119.19;4941185;28;45565;-78
2022/10/21 03:41:16;;;;;;;;;2.00;1.00;;;;;16.71;100.00;100136.69;4941123;28;48686;-78
2022/10/21 03:43:41;;;;;;;;;1.67;1.67;;;;;16.72;100.00;100138.31;4943693;28;45305;-77
2022/10/21 03:46:06;;;;;;;;;2.00;1.00;;;;;16.70;100.00;100105.53;4951750;28;45326;-77
2022/10/21 03:48:32;;;;;;;;;2.00;2.00;;;;;16.69;100.00;100095.84;4952630;28;47608;-77
2022/10/21 03:50:57;;;;;;;;;1.00;1.00;;;;;16.71;100.00;100099.94;4941669;28;45199;-76
2022/10/21 03:53:23;;;;;;;;;1.00;1.00;;;;;16.73;100.00;100084.41;4952035;28;48240;-77
2022/10/21 03:55:50;;;;;;;;;1.00;1.00;;;;;16.78;100.00;100100.66;4942543;28;45412;-76
2022/10/21 03:58:15;;;;;;;;;2.00;2.00;;;;;16.77;100.00;100092.81;4950756;28;46519;-76
2022/10/21 04:00:40;;;;;;;;;2.00;2.00;;;;;16.76;100.00;100081.28;4945997;28;45289;-78
2022/10/21 04:03:06;;;;;;;;;2.33;2.33;;;;;16.79;100.00;100077.28;4941194;28;45247;-76
2022/10/21 04:05:31;;;;;;;;;3.00;3.00;;;;;16.77;100.00;100077.53;4941163;28;45460;-77
2022/10/21 04:07:56;;;;;;;;;3.33;2.00;;;;;16.77;100.00;100085.56;4940465;28;48600;-76
2022/10/21 04:10:22;;;;;;;;;4.00;3.33;;;;;16.46;100.00;100033.88;4940910;28;45372;-76
2022/10/21 04:12:47;;;;;;;;;4.00;3.33;;;;;16.78;100.00;100079.19;4954440;28;45417;-75
2022/10/21 04:15:13;;;;;;;;;2.00;2.00;;;;;16.91;100.00;100093.41;4949704;28;45489;-75
2022/10/21 04:17:39;;;;;;;;;3.67;3.67;;;;;16.87;100.00;100081.50;4942740;28;46018;-76
2022/10/21 04:20:05;;;;;;;;;2.00;2.00;;;;;16.95;100.00;100086.56;4940591;28;45314;-75
2022/10/21 04:22:30;;;;;;;;;2.00;2.00;;;;;16.89;100.00;100074.06;4940570;28;45381;-76
2022/10/21 04:24:56;;;;;;;;;3.33;3.00;;;;;16.93;100.00;100075.22;4945791;28;45393;-76
2022/10/21 04:27:21;;;;;;;;;4.00;2.67;;;;;17.02;100.00;100089.09;4947833;28;45346;-76
2022/10/21 04:29:46;;;;;;;;;4.67;4.67;;;;;17.07;100.00;100099.19;4939132;28;47941;-76
2022/10/21 04:32:11;;;;;;;;;4.00;4.00;;;;;17.12;100.00;100102.00;4940680;28;45400;-76
2022/10/21 04:34:37;;;;;;;;;3.00;3.00;;;;;17.13;100.00;100095.56;4952759;28;45378;-76
2022/10/21 04:37:02;;;;;;;;;5.00;4.00;;;;;17.08;100.00;100098.13;4940544;28;45488;-76
2022/10/21 04:39:28;;;;;;;;;3.33;3.33;;;;;16.97;100.00;100075.59;4952664;28;47476;-75
2022/10/21 04:41:56;;;;;;;;;3.67;2.00;;;;;17.13;100.00;100099.06;4940630;28;45386;-76
2022/10/21 04:44:21;;;;;;;;;3.33;2.33;;;;;17.10;100.00;100098.72;4949136;28;45226;-76
2022/10/21 04:46:47;;;;;;;;;3.33;3.33;;;;;17.17;100.00;100102.09;4945693;28;45225;-75
2022/10/21 04:49:12;;;;;;;;;5.67;3.00;;;;;17.12;100.00;100084.00;4945106;28;48598;-76
2022/10/21 04:51:37;;;;;;;;;2.33;2.33;;;;;17.15;100.00;100078.16;4947601;28;48833;-76
2022/10/21 04:54:03;;;;;;;;;2.00;2.00;;;;;17.14;100.00;100078.41;4940167;28;45378;-76
2022/10/21 04:56:29;;;;;;;;;3.00;3.00;;;;;17.08;100.00;100087.38;4942796;28;45290;-75
2022/10/21 04:58:54;;;;;;;;;3.33;3.33;;;;;17.25;100.00;100117.88;4943385;28;45348;-75
2022/10/21 05:01:19;;;;;;;;;3.00;2.00;;;;;17.17;100.00;100102.09;4945764;28;45397;-75
2022/10/21 05:03:44;;;;;;;;;2.33;2.33;;;;;17.25;100.00;100165.38;4943388;28;45318;-75
2022/10/21 05:06:10;;;;;;;;;4.00;2.67;;;;;17.23;100.00;100175.50;4943337;28;45239;-75
2022/10/21 05:08:35;;;;;;;;;4.00;4.00;;;;;17.15;100.00;100165.97;4945422;28;47090;-76
2022/10/21 05:11:01;;;;;;;;;2.00;2.00;;;;;17.26;100.00;100188.47;4948641;28;45491;-78
2022/10/21 05:13:28;;;;;;;;;2.00;2.00;;;;;17.31;100.00;100193.16;4951990;28;45389;-78
2022/10/21 05:15:58;;;;;;;;;4.00;2.33;;;;;17.28;100.00;100199.81;4955768;28;45419;-78
2022/10/21 05:18:23;;;;;;;;;3.67;2.67;;;;;17.28;100.00;100205.19;4955005;28;45384;-78
2022/10/21 05:20:51;;;;;;;;;2.00;2.00;;;;;17.28;100.00;100207.88;4943100;28;45393;-78
2022/10/21 05:23:16;;;;;;;;;2.33;0.00;;;;;17.32;100.00;100209.03;4943347;28;45344;-77
2022/10/21 05:25:46;;;;;;;;;3.00;3.00;;;;;17.33;100.00;100207.19;4943015;28;45448;-80
2022/10/21 05:28:12;;;;;;;;;2.33;2.33;;;;;17.37;100.00;100211.03;4943146;28;46016;-78
2022/10/21 05:30:37;;;;;;;;;2.00;2.00;;;;;17.34;100.00;100184.63;4971226;28;45609;-78
2022/10/21 05:33:03;;;;;;;;;3.67;2.67;;;;;17.31;100.00;100182.41;4948708;28;45396;-79
2022/10/21 05:35:28;;;;;;;;;3.00;3.00;;;;;17.39;100.00;100190.94;4949384;28;45499;-79
2022/10/21 05:37:53;;;;;;;;;3.00;3.00;;;;;17.39;100.00;100190.13;4942619;28;45369;-79
2022/10/21 05:40:18;;;;;;;;;2.00;2.00;;;;;17.38;100.00;100186.63;4952304;28;45501;-79
2022/10/21 05:42:44;;;;;;;;;2.67;2.67;;;;;17.39;100.00;100184.75;4945788;28;45341;-79
2022/10/21 05:45:10;;;;;;;;;2.00;2.00;;;;;17.35;100.00;100179.03;4956359;28;45543;-79
2022/10/21 05:47:35;;;;;;;;;3.33;3.00;;;;;17.28;100.00;100167.59;4964376;28;48414;-79
2022/10/21 05:50:01;;;;;;;;;2.33;2.33;;;;;17.38;100.00;100188.47;4948369;28;45726;-79
2022/10/21 05:52:26;;;;;;;;;2.33;2.33;;;;;17.37;100.00;100184.16;4942642;28;45566;-80
2022/10/21 05:54:51;;;;;;;;;3.00;3.00;;;;;17.37;100.00;100187.69;4942741;28;45378;-78
2022/10/21 05:57:16;;;;;;;;;2.67;2.00;;;;;17.36;100.00;100204.03;4942389;28;45346;-78
2022/10/21 05:59:42;;;;;;;;;2.00;2.00;;;;;17.42;100.00;100222.69;4942770;28;45370;-77
2022/10/21 06:02:09;;;;;;;;;2.67;2.67;;;;;17.41;100.00;100220.25;4944973;28;45436;-77
2022/10/21 06:04:34;;;;;;;;;5.67;2.67;;;;;17.40;100.00;100226.69;4964102;28;47062;-74
2022/10/21 06:07:00;;;;;;;;;3.33;3.33;;;;;17.37;100.00;100237.88;4954888;28;56634;-75
2022/10/21 06:09:25;;;;;;;;;2.67;2.67;;;;;17.36;100.00;100237.06;4942571;28;45352;-74
2022/10/21 06:11:51;;;;;;;;;3.33;3.33;;;;;17.44;100.00;100249.34;4953225;28;45265;-74
2022/10/21 06:14:16;;;;;;;;;2.00;2.00;;;;;17.40;100.00;100245.47;4943410;28;45323;-81
2022/10/21 06:16:41;;;;;;;;;4.33;1.67;;;;;17.39;100.00;100246.53;4951129;28;47060;-79
2022/10/21 06:19:06;;;;;;;;;2.33;2.33;;;;;17.45;100.00;100268.97;4944169;28;45279;-78
2022/10/21 06:21:32;;;;;;;;;3.00;3.00;;;;;17.38;100.00;100269.88;4942616;28;45170;-78
2022/10/21 06:23:57;;;;;;;;;3.00;2.67;;;;;17.42;100.00;100279.13;4942052;28;45682;-78
2022/10/21 06:26:23;;;;;;;;;2.00;2.00;;;;;17.48;100.00;100277.38;4942283;28;46116;-78
2022/10/21 06:28:48;;;;;;;;;4.00;3.33;;;;;17.47;100.00;100265.00;4952756;28;45362;-78
2022/10/21 06:31:17;;;;;;;;;2.00;2.00;;;;;17.35;100.00;100251.53;4943814;28;45283;-78
2022/10/21 06:33:42;;;;;;;;;3.00;3.00;;;;;17.47;100.00;100275.72;4954484;28;46142;-77
2022/10/21 06:36:08;;;;;;;;;3.67;3.00;;;;;17.48;100.00;100288.09;4973429;28;47615;-78
2022/10/21 06:38:35;;;;;;;;;2.33;2.33;;;;;17.50;100.00;100304.00;4950733;28;45391;-78
2022/10/21 06:41:10;;;;;;;;;3.00;3.00;;;;;17.45;100.00;100293.13;4960013;28;45466;-76
2022/10/21 06:43:36;;;;;;;;;2.00;2.00;;;;;17.49;100.00;100299.69;4952484;28;45626;-77
2022/10/21 06:46:07;;;;;;;;;5.33;5.00;;;;;17.57;100.00;100303.91;4953322;28;46480;-77
2022/10/21 06:48:33;;;;;;;;;2.00;2.00;;;;;17.62;100.00;100312.06;4941553;28;45285;-76
2022/10/21 06:51:08;;;;;;;;;3.00;3.00;;;;;17.62;100.00;100317.44;4948504;28;45349;-77
2022/10/21 06:53:34;;;;;;;;;4.67;4.33;;;;;17.74;100.00;100349.69;4949360;28;45517;-77
2022/10/21 06:56:09;;;;;;;;;3.00;3.00;;;;;17.79;100.00;100355.22;4960117;28;45226;-77
2022/10/21 06:58:36;;;;;;;;;2.00;2.00;;;;;17.74;100.00;100353.22;4964649;28;45812;-77
2022/10/21 07:01:10;;;;;;;;;4.00;4.00;;;;;17.85;100.00;100374.97;4960116;28;45438;-75
2022/10/21 07:03:35;;;;;;;;;5.67;3.33;;;;;17.82;100.00;100370.88;4959185;28;46772;-75
2022/10/21 07:06:01;;;;;;;;;6.00;4.33;;;;;17.87;100.00;100370.19;4959369;28;46080;-77
2022/10/21 07:08:28;;;;;;;;;5.67;4.00;;;;;17.79;100.00;100356.03;4961077;28;45547;-77
2022/10/21 07:10:53;;;;;;;;;4.00;3.00;;;;;17.87;100.00;100354.06;4958928;28;45356;-76
2022/10/21 07:13:19;;;;;;;;;3.00;3.00;;;;;17.89;100.00;100342.00;4952435;28;46081;-78
2022/10/21 07:15:45;;;;;;;;;5.00;4.67;;;;;17.90;100.00;100343.66;4955227;28;45382;-78
2022/10/21 07:18:10;;;;;;;;;2.00;2.00;;;;;17.99;100.00;100346.00;4941521;28;45318;-78
2022/10/21 07:20:35;;;;;;;;;4.67;4.67;;;;;17.96;100.00;100343.78;4941708;28;45266;-77
2022/10/21 07:23:01;;;;;;;;;2.67;2.67;;;;;18.03;100.00;100365.97;4956555;28;46183;-77
2022/10/21 07:25:26;;;;;;;;;2.67;2.67;;;;;17.97;100.00;100356.16;4952120;28;47369;-79
2022/10/21 07:27:51;;;;;;;;;5.67;3.33;;;;;17.93;100.00;100353.13;4958747;28;49883;-80
2022/10/21 07:30:16;;;;;;;;;4.00;4.00;;;;;17.94;100.00;100357.44;4945520;28;45500;-78
2022/10/21 07:32:42;;;;;;;;;3.00;3.00;;;;;17.96;100.00;100371.47;4947656;28;48609;-79
2022/10/21 07:35:07;;;;;;;;;7.33;7.00;;;;;17.98;100.00;100379.28;4946500;28;45345;-79
2022/10/21 07:37:33;;;;;;;;;6.00;5.67;;;;;17.90;100.00;100385.84;4945492;28;45315;-79
2022/10/21 07:39:59;;;;;;;;;4.00;4.00;;;;;17.86;100.00;100398.09;4949267;28;45181;-80
2022/10/21 07:42:26;;;;;;;;;4.00;4.00;;;;;17.91;100.00;100403.63;4941043;28;45619;-79
2022/10/21 07:44:56;;;;;;;;;4.00;3.33;;;;;17.84;100.00;100389.47;4952557;28;46204;-79
2022/10/21 07:47:21;;;;;;;;;7.00;6.67;;;;;17.86;100.00;100392.72;4958707;28;45359;-79
2022/10/21 07:49:47;;;;;;;;;6.00;6.00;;;;;17.85;100.00;100399.16;4949622;28;45324;-79
2022/10/21 07:52:12;;;;;;;;;4.33;4.33;;;;;17.82;100.00;100397.75;4969261;28;46266;-80
2022/10/21 07:54:37;;;;;;;;;6.33;3.67;;;;;17.83;100.00;100390.50;4947809;28;47157;-80
2022/10/21 07:57:03;;;;;;;;;2.33;2.00;;;;;17.72;100.00;100368.75;4958555;28;45526;-79
2022/10/21 07:59:28;;;;;;;;;3.00;2.00;;;;;17.76;100.00;100377.19;4959561;28;45478;-79
2022/10/21 08:01:53;;;;;;;;;1.33;1.33;;;;;17.67;100.00;100369.47;4956924;28;45487;-79
2022/10/21 08:04:21;;;;;;;;;3.00;3.00;;;;;17.73;100.00;100391.06;4959100;28;46348;-78
2022/10/21 08:06:47;;;;;;;;;3.00;3.00;;;;;17.69;100.00;100396.06;4957815;28;45401;-74
2022/10/21 08:09:13;;;;;;;;;1.25;1.25;;;;;17.70;100.00;100397.72;4946493;28;45278;-73
2022/10/21 08:11:39;;;;;;;;;4.33;3.33;;;;;17.73;100.00;100399.13;4940415;28;45454;-74
2022/10/21 08:14:06;;;;;;;;;5.00;4.00;;;;;17.76;100.00;100382.56;4950910;28;47049;-73
2022/10/21 08:16:32;;;;;;;;;3.00;3.00;;;;;17.82;100.00;100386.19;4940820;28;45874;-73
2022/10/21 08:19:02;;;;;;;;;2.00;2.00;;;;;17.82;100.00;100396.94;4940509;28;45472;-73
2022/10/21 08:21:27;;;;;;;;;3.33;3.33;;;;;17.87;100.00;100418.56;4940453;28;45415;-74
2022/10/21 08:23:53;;;;;;;;;2.00;2.00;;;;;17.88;100.00;100404.06;4954887;28;45459;-72
2022/10/21 08:26:18;;;;;;;;;4.00;2.33;;;;;17.92;100.00;100400.69;4952375;28;55038;-73
2022/10/21 08:28:43;;;;;;;;;2.00;2.00;;;;;18.00;100.00;100391.47;4940789;28;45337;-73
2022/10/21 08:31:12;;;;;;;;;3.67;2.67;;;;;18.03;100.00;100396.38;4953043;28;45461;-73
2022/10/21 08:33:37;;;;;;;;;2.00;2.00;;;;;18.09;100.00;100397.31;4952486;28;45541;-74
2022/10/21 08:36:08;;;;;;;;;4.67;4.67;;;;;18.19;100.00;100404.03;4962093;28;45730;-73
2022/10/21 08:38:34;;;;;;;;;4.00;4.00;;;;;18.14;100.00;100392.06;4960335;28;45483;-74
2022/10/21 08:41:00;;;;;;;;;4.67;4.00;;;;;18.18;100.00;100395.13;4943611;28;45563;-74
2022/10/21 08:43:33;;;;;;;;;1.00;1.00;;;;;18.27;100.00;100406.34;4944601;28;45909;-74
2022/10/21 08:46:04;;;;;;;;;2.33;2.00;;;;;18.40;100.00;100411.50;4955645;28;45395;-73
2022/10/21 08:49:00;;;;;;;;;2.67;1.00;;;;;18.50;100.00;100418.97;4943486;28;45155;-73
2022/10/21 08:51:32;;;;;;;;;4.00;3.00;;;;;18.57;100.00;100410.78;4944701;28;46543;-73
2022/10/21 08:54:04;;;;;;;;;1.00;1.00;;;;;18.62;100.00;100415.47;4944350;28;48606;-72
2022/10/21 08:56:31;;;;;;;;;3.00;3.00;;;;;18.65;100.00;100409.59;4943522;28;45309;-73
2022/10/21 08:58:57;;;;;;;;;3.00;3.00;;;;;18.72;100.00;100425.63;4943655;28;45482;-74
2022/10/21 09:01:31;;;;;;;;;2.50;2.50;;;;;18.74;100.00;100423.50;4956930;28;45918;-74
2022/10/21 09:04:06;;;;;;;;;2.25;1.00;;;;;18.73;100.00;100422.69;4950252;28;45357;-73
2022/10/21 09:06:37;;;;;;;;;2.00;2.00;;;;;18.73;100.00;100427.25;4940829;28;45422;-73
2022/10/21 09:09:25;;;;;;;;;1.50;1.00;;;;;18.76;100.00;100432.97;4941610;28;45468;-73
2022/10/21 09:12:02;;;;;;;;;2.25;1.25;;;;;18.74;100.00;100426.22;4942020;28;45397;-73
2022/10/21 09:14:49;;;;;;;;;1.50;1.50;;;;;18.77;100.00;100436.50;4953829;28;48688;-74
2022/10/21 09:17:42;;;;;;;;;1.25;1.00;;;;;18.69;100.00;100418.84;4952641;28;45800;-73
2022/10/21 09:20:28;;;;;;;;;0.00;0.00;;;;;18.74;100.00;100423.50;4940985;28;45460;-73
2022/10/21 09:23:06;;;;;;;;;1.00;1.00;;;;;18.72;100.00;100431.81;4953022;28;46321;-73
2022/10/21 09:26:00;;;;;;;;;1.00;1.00;;;;;18.70;100.00;100425.84;4954714;28;45412;-74
2022/10/21 09:28:27;;;;;;;;;0.00;0.00;;;;;18.63;100.00;100426.00;4942397;28;45564;-74
2022/10/21 09:30:54;;;;;;;;;1.00;1.00;;;;;18.60;100.00;100414.88;4949987;28;45513;-74
2022/10/21 09:33:25;;;;;;;;;0.75;0.50;;;;;18.66;100.00;100417.44;4946011;28;46520;-74
2022/10/21 09:36:15;;;;;;;;;2.00;2.00;;;;;18.70;100.00;100428.53;4942946;28;46324;-73
2022/10/21 09:38:56;;;;;;;;;1.00;1.00;;;;;18.64;100.00;100419.53;4971509;28;45405;-73
2022/10/21 09:41:31;;;;;;;;;1.00;1.00;;;;;18.67;100.00;100418.25;4945200;28;45467;-73
2022/10/21 09:43:56;;;;;;;;;1.00;1.00;;;;;18.74;100.00;100429.69;4971177;28;46366;-74
2022/10/21 09:46:22;;;;;;;;;1.00;1.00;;;;;18.76;100.00;100430.28;4951743;28;48926;-74
2022/10/21 09:48:50;;;;;;;;;1.00;1.00;;;;;18.75;100.00;100431.34;4943727;28;45348;-74
2022/10/21 09:51:22;;;;;;;;;0.00;0.00;;;;;18.72;100.00;100431.00;4947153;28;45381;-74
2022/10/21 09:54:08;;;;;;;;;1.67;1.67;;;;;18.74;100.00;100434.28;4958267;28;46811;-74
2022/10/21 09:56:55;;;;;;;;;2.00;2.00;;;;;18.69;100.00;100426.91;4953822;28;46332;-73
2022/10/21 09:59:22;;;;;;;;;2.00;1.00;;;;;18.74;100.00;100432.38;4942546;28;45478;-73
2022/10/21 10:01:48;;;;;;;;;4.00;2.33;;;;;18.64;100.00;100419.53;4947282;28;45334;-74
2022/10/21 10:04:29;;;;;;;;;2.00;1.33;;;;;18.66;100.00;100424.69;4942350;28;45504;-73
2022/10/21 10:06:56;;;;;;;;;0.00;0.00;;;;;18.64;100.00;100424.09;4946966;28;45459;-74
2022/10/21 10:09:32;;;;;;;;;3.00;1.67;;;;;18.68;100.00;100417.22;4949230;28;45444;-73
2022/10/21 10:12:10;;;;;;;;;2.00;2.00;;;;;18.61;100.00;100403.03;4965116;28;45370;-74
2022/10/21 10:14:41;;;;;;;;;0.33;0.33;;;;;18.72;100.00;100426.44;4943025;28;45416;-73
2022/10/21 10:17:30;;;;;;;;;2.33;2.33;;;;;18.75;100.00;100417.91;4953551;28;45446;-74
2022/10/21 10:20:04;;;;;;;;;2.33;2.00;;;;;18.78;100.00;100417.44;4977835;28;46110;-74
2022/10/21 10:22:30;;;;;;;;;2.00;2.00;;;;;18.83;100.00;100421.28;4949183;28;45505;-74
2022/10/21 10:25:07;;;;;;;;;3.67;3.33;;;;;18.93;100.00;100414.22;4942823;28;45155;-74
2022/10/21 10:27:32;;;;;;;;;3.67;3.67;;;;;19.08;100.00;100421.00;4942989;28;45341;-73
2022/10/21 10:29:59;;;;;;;;;2.33;2.33;;;;;19.13;100.00;100428.38;4942153;28;45362;-74
2022/10/21 10:32:30;;;;;;;;;3.00;3.00;;;;;19.19;100.00;100422.03;4942000;28;45433;-74
2022/10/21 10:34:59;;;;;;;;;5.25;2.25;;;;;19.23;100.00;100417.78;4959488;28;46096;-73
2022/10/21 10:37:32;;;;;;;;;2.00;2.00;;;;;19.32;100.00;100412.81;4953590;28;45269;-74
2022/10/21 10:40:01;;;;;;;;;2.50;2.50;;;;;19.45;100.00;100432.47;4959517;28;45299;-73
2022/10/21 10:42:34;;;;;;;;;3.00;3.00;;;;;19.55;100.00;100430.75;4961889;28;45251;-73
2022/10/21 10:45:11;;;;;;;;;6.67;5.33;;;;;19.67;100.00;100432.59;4958312;28;45453;-74
2022/10/21 10:47:51;;;;;;;;;5.75;4.00;;;;;19.77;100.00;100443.53;4954484;28;46307;-73
2022/10/21 10:50:36;;;;;;;;;6.33;4.33;;;;;19.85;100.00;100444.19;4941979;28;45415;-74
2022/10/21 10:53:27;;;;;;;;;7.00;5.33;;;;;19.90;100.00;100444.28;4938869;28;45514;-72
2022/10/21 10:56:19;;;;;;;;;3.25;3.25;;;;;19.92;100.00;100442.97;4942009;28;45678;-72
2022/10/21 10:58:58;;;;;;;;;4.00;4.00;;;;;19.91;100.00;100432.44;4941424;28;46341;-72
2022/10/21 11:01:29;;;;;;;;;8.00;5.67;;;;;19.87;100.00;100432.09;4943627;28;45374;-72
2022/10/21 11:04:03;;;;;;;;;6.67;6.00;;;;;19.87;100.00;100436.69;4941305;28;45313;-73
2022/10/21 11:06:38;;;;;;;;;8.00;6.67;;;;;19.87;100.00;100442.09;4942435;28;45319;-74
2022/10/21 11:09:06;;;;;;;;;7.00;4.00;;;;;19.87;100.00;100436.69;4971692;28;48451;-73
2022/10/21 11:11:36;;;;;;;;;8.33;8.00;;;;;19.87;100.00;100428.59;4941600;28;45346;-73
2022/10/21 11:14:01;;;;;;;;;5.00;5.00;;;;;19.86;100.00;100405.38;4954610;28;45311;-72
2022/10/21 11:16:43;;;;;;;;;7.00;6.00;;;;;19.86;100.00;100397.28;4949313;28;45317;-73
2022/10/21 11:19:29;;;;;;;;;7.33;6.33;;;;;19.93;100.00;100416.81;4941040;28;46458;-73
2022/10/21 11:22:07;;;;;;;;;8.00;8.00;;;;;19.94;100.00;100416.56;4954424;28;45463;-74
2022/10/21 11:24:41;;;;;;;;;5.50;5.50;;;;;20.00;100.00;100419.38;4943899;28;45328;-73
2022/10/21 11:27:25;;;;;;;;;6.00;4.00;;;;;20.05;100.00;100425.69;4941242;28;45368;-74